Time;durP1;ratioP1;P1;durP2;ratioP2;P2;SDS_P1;SDS_P2;PMS_P1;PMS_P2;Temp;Humidity;BMP_temperature;BMP_pressure;BME280_temperature;BME280_humidity;BME280_pressure;Samples;Min_cycle;Max_cycle;Signal;HPM_P1;HPM_P2
2022/07/24 00:01:36;;;;;;;10.15;6.38;;;27.90;87.90;;;;;;5102377;28;20028;-54
2022/07/24 00:04:03;;;;;;;14.10;9.40;;;27.70;91.30;;;;;;5103539;28;20060;-53
2022/07/24 00:06:29;;;;;;;54.03;41.55;;;27.50;90.50;;;;;;5103888;28;20657;-54
2022/07/24 00:08:55;;;;;;;24.02;16.90;;;;;;;;;;5115143;27;20038;-55
2022/07/24 00:11:21;;;;;;;31.33;26.92;;;27.60;99.90;;;;;;5089424;28;20066;-53
2022/07/24 00:13:47;;;;;;;30.20;27.10;;;27.30;99.90;;;;;;5104041;28;20459;-54
2022/07/24 00:16:13;;;;;;;23.25;17.77;;;27.10;90.00;;;;;;5101472;28;20060;-51
2022/07/24 00:18:39;;;;;;;20.20;17.85;;;27.00;90.40;;;;;;5099209;28;20620;-55
2022/07/24 00:21:05;;;;;;;20.23;15.88;;;27.10;90.50;;;;;;5102341;28;20434;-52
2022/07/24 00:23:32;;;;;;;12.57;11.07;;;;;;;;;;5112100;27;20127;-54
2022/07/24 00:25:57;;;;;;;14.82;12.90;;;26.90;99.90;;;;;;5101089;28;20028;-55
2022/07/24 00:28:24;;;;;;;14.15;12.02;;;26.80;91.00;;;;;;5102452;28;20096;-51
2022/07/24 00:30:50;;;;;;;14.73;13.13;;;26.80;91.50;;;;;;5110049;28;20051;-53
2022/07/24 00:33:16;;;;;;;17.38;12.80;;;26.80;91.60;;;;;;5115933;28;20403;-54
2022/07/24 00:35:43;;;;;;;16.35;10.88;;;26.90;91.50;;;;;;5116206;28;20447;-53
2022/07/24 00:38:09;;;;;;;13.23;10.38;;;26.80;91.40;;;;;;5100876;28;20444;-54
2022/07/24 00:40:35;;;;;;;14.07;10.40;;;26.90;91.30;;;;;;5103651;28;20024;-51
2022/07/24 00:43:02;;;;;;;12.60;10.23;;;27.00;91.20;;;;;;5115421;28;20036;-54
2022/07/24 00:45:28;;;;;;;11.30;8.77;;;27.00;91.30;;;;;;5104431;28;20023;-55
2022/07/24 00:47:53;;;;;;;13.25;8.88;;;27.10;91.10;;;;;;5075490;28;20044;-51
2022/07/24 00:50:19;;;;;;;14.27;8.70;;;27.10;91.10;;;;;;5101697;28;20031;-52
2022/07/24 00:52:45;;;;;;;10.10;8.13;;;27.00;91.10;;;;;;5095352;28;20404;-52
2022/07/24 00:55:12;;;;;;;11.70;8.30;;;27.10;91.50;;;;;;5099711;28;20023;-56
2022/07/24 00:57:38;;;;;;;21.42;9.80;;;27.10;91.40;;;;;;5101126;28;20069;-51
2022/07/24 01:00:06;;;;;;;11.70;8.73;;;26.90;91.50;;;;;;5101257;28;20060;-52
2022/07/24 01:02:33;;;;;;;12.00;8.73;;;26.80;91.70;;;;;;5082139;28;20051;-53
2022/07/24 01:04:59;;;;;;;17.83;9.57;;;26.80;91.70;;;;;;5102268;28;20126;-54
2022/07/24 01:07:25;;;;;;;16.08;8.50;;;27.00;91.70;;;;;;5103084;28;20398;-54
2022/07/24 01:09:51;;;;;;;12.00;8.65;;;27.00;91.60;;;;;;5096374;28;20032;-53
2022/07/24 01:12:18;;;;;;;12.75;10.27;;;27.00;91.70;;;;;;5098391;28;20024;-54
2022/07/24 01:14:44;;;;;;;13.13;9.48;;;27.00;91.70;;;;;;5107028;28;20020;-54
2022/07/24 01:17:11;;;;;;;14.05;8.90;;;26.80;91.60;;;;;;5103971;28;21443;-52
2022/07/24 01:19:36;;;;;;;15.00;8.85;;;26.90;91.80;;;;;;5103892;28;20043;-54
2022/07/24 01:22:03;;;;;;;13.98;9.00;;;26.90;91.70;;;;;;5106702;28;20028;-52
2022/07/24 01:24:28;;;;;;;11.43;8.25;;;27.00;91.20;;;;;;5106793;28;20030;-52
2022/07/24 01:26:54;;;;;;;9.85;7.85;;;27.00;91.60;;;;;;5129217;27;20044;-52
2022/07/24 01:29:20;;;;;;;13.23;9.10;;;26.90;91.80;;;;;;5104679;28;20028;-53
2022/07/24 01:31:46;;;;;;;11.95;8.45;;;26.80;92.10;;;;;;5133711;27;20487;-52
2022/07/24 01:34:12;;;;;;;12.95;8.38;;;26.70;92.40;;;;;;5103168;28;20024;-55
2022/07/24 01:36:39;;;;;;;11.52;8.88;;;;;;;;;;5098567;28;20044;-51
2022/07/24 01:39:05;;;;;;;23.23;9.57;;;;;;;;;;5106406;28;20075;-52
2022/07/24 01:41:31;;;;;;;17.55;9.10;;;26.40;92.90;;;;;;5120025;27;20040;-52
2022/07/24 01:43:57;;;;;;;13.65;8.27;;;;;;;;;;5106328;28;20394;-51
2022/07/24 01:46:23;;;;;;;12.38;8.73;;;;;;;;;;5104704;28;20028;-51
2022/07/24 01:48:49;;;;;;;9.52;8.23;;;26.30;93.40;;;;;;5104151;28;20138;-54
2022/07/24 01:51:15;;;;;;;15.15;8.18;;;26.30;93.50;;;;;;5085045;28;20512;-52
2022/07/24 01:53:41;;;;;;;12.98;8.95;;;26.30;93.60;;;;;;5104118;28;20051;-54
2022/07/24 01:56:07;;;;;;;12.35;9.02;;;26.20;93.40;;;;;;5104314;28;20109;-53
2022/07/24 01:58:33;;;;;;;11.52;9.52;;;26.30;93.80;;;;;;5101979;28;20040;-52
2022/07/24 02:00:58;;;;;;;13.05;9.88;;;26.20;94.10;;;;;;5105622;28;20035;-55
2022/07/24 02:03:24;;;;;;;16.60;10.23;;;26.10;94.30;;;;;;5103227;28;20417;-52
2022/07/24 02:05:50;;;;;;;15.43;11.82;;;25.90;94.50;;;;;;5088427;28;20119;-53
2022/07/24 02:08:16;;;;;;;20.08;11.52;;;;;;;;;;5094554;28;20028;-52
2022/07/24 02:10:42;;;;;;;17.92;12.55;;;25.80;95.60;;;;;;5105808;28;20440;-50
2022/07/24 02:13:08;;;;;;;18.05;11.10;;;25.80;96.10;;;;;;5123575;27;20118;-52
2022/07/24 02:15:34;;;;;;;16.48;11.27;;;25.70;96.60;;;;;;5102571;28;20047;-54
2022/07/24 02:18:01;;;;;;;16.17;12.32;;;25.60;97.30;;;;;;5121058;27;20031;-52
2022/07/24 02:20:28;;;;;;;16.23;11.38;;;25.60;98.00;;;;;;5121432;27;20469;-53
2022/07/24 02:22:54;;;;;;;18.02;11.00;;;25.70;98.30;;;;;;5121453;27;20093;-52
2022/07/24 02:25:21;;;;;;;15.40;11.82;;;25.70;99.00;;;;;;5118409;27;20051;-52
2022/07/24 02:27:47;;;;;;;17.15;11.55;;;25.70;99.30;;;;;;5122501;27;20058;-54
2022/07/24 02:30:17;;;;;;;12.82;11.48;;;25.70;99.50;;;;;;5114553;27;20027;-54
2022/07/24 02:32:43;;;;;;;15.37;10.83;;;25.70;99.80;;;;;;5087000;27;20040;-53
2022/07/24 02:35:10;;;;;;;15.45;11.80;;;25.80;99.90;;;;;;5122881;27;20035;-53
2022/07/24 02:37:40;;;;;;;18.60;11.65;;;25.80;99.90;;;;;;5117183;27;20574;-50
2022/07/24 02:40:07;;;;;;;14.38;11.23;;;25.90;99.90;;;;;;5125805;27;20027;-53
2022/07/24 02:42:34;;;;;;;15.20;10.95;;;25.90;99.90;;;;;;5078855;27;20036;-54
2022/07/24 02:44:59;;;;;;;18.95;11.70;;;25.80;99.90;;;;;;5106919;27;20036;-55
2022/07/24 02:47:25;;;;;;;16.50;11.20;;;25.60;99.90;;;;;;5096263;28;20039;-52
2022/07/24 02:49:51;;;;;;;16.10;10.98;;;25.60;99.90;;;;;;5105230;28;20034;-55
2022/07/24 02:52:17;;;;;;;17.05;10.73;;;25.60;99.90;;;;;;5102755;28;20028;-54
2022/07/24 02:54:42;;;;;;;16.08;10.98;;;25.70;99.90;;;;;;5105053;28;20031;-54
2022/07/24 02:57:08;;;;;;;14.60;11.43;;;25.70;99.90;;;;;;5098770;28;20039;-52
2022/07/24 02:59:34;;;;;;;17.33;11.10;;;25.70;99.90;;;;;;5103085;28;20110;-53
2022/07/24 03:02:00;;;;;;;16.98;11.43;;;25.80;99.90;;;;;;5101851;28;20483;-54
2022/07/24 03:04:25;;;;;;;14.25;10.32;;;25.90;99.90;;;;;;5099493;28;20457;-55
2022/07/24 03:06:51;;;;;;;11.73;9.75;;;25.90;99.90;;;;;;5105384;28;20042;-55
2022/07/24 03:09:17;;;;;;;15.52;10.73;;;25.90;99.90;;;;;;5102975;28;20032;-52
2022/07/24 03:11:43;;;;;;;17.63;10.68;;;25.90;99.90;;;;;;5102643;28;20107;-53
2022/07/24 03:14:14;;;;;;;15.80;10.93;;;25.90;99.90;;;;;;5103340;28;20097;-55
2022/07/24 03:16:39;;;;;;;19.40;10.85;;;25.90;99.90;;;;;;5104697;28;20032;-52
2022/07/24 03:19:05;;;;;;;14.55;10.35;;;26.00;99.90;;;;;;5104471;28;20050;-56
2022/07/24 03:21:31;;;;;;;14.60;10.85;;;26.00;99.90;;;;;;5078530;28;20040;-53
2022/07/24 03:23:56;;;;;;;23.52;11.23;;;26.00;99.90;;;;;;5103785;28;20058;-54
2022/07/24 03:26:22;;;;;;;15.38;9.70;;;25.90;99.90;;;;;;5095211;28;20123;-55
2022/07/24 03:28:48;;;;;;;15.30;10.90;;;25.90;99.90;;;;;;5113950;27;20036;-54
2022/07/24 03:31:14;;;;;;;12.13;10.52;;;25.80;99.90;;;;;;5101336;28;20035;-53
2022/07/24 03:33:39;;;;;;;16.77;10.48;;;25.70;99.90;;;;;;5102184;28;20038;-53
2022/07/24 03:36:05;;;;;;;14.15;10.20;;;25.70;99.90;;;;;;5104046;28;20061;-53
2022/07/24 03:38:31;;;;;;;14.52;10.35;;;25.70;99.90;;;;;;5095857;28;20123;-52
2022/07/24 03:40:57;;;;;;;16.50;10.70;;;25.70;99.90;;;;;;5099333;28;20103;-52
2022/07/24 03:43:23;;;;;;;18.15;10.50;;;25.70;99.90;;;;;;5102263;28;20039;-54
2022/07/24 03:45:48;;;;;;;19.10;9.63;;;25.70;99.90;;;;;;5100542;28;20040;-53
2022/07/24 03:48:14;;;;;;;18.75;10.25;;;25.70;99.90;;;;;;5103842;28;20115;-55
2022/07/24 03:50:40;;;;;;;13.65;9.77;;;25.70;99.90;;;;;;5104244;28;20027;-54
2022/07/24 03:53:06;;;;;;;15.52;10.70;;;;;;;;;;5102789;28;20506;-56
2022/07/24 03:55:32;;;;;;;19.30;11.13;;;25.60;99.90;;;;;;5102738;28;20039;-52
2022/07/24 03:57:57;;;;;;;16.77;9.82;;;25.60;99.90;;;;;;5104126;28;20023;-53
2022/07/24 04:00:23;;;;;;;17.80;11.48;;;25.60;99.90;;;;;;5103483;28;20106;-55
2022/07/24 04:02:49;;;;;;;17.98;10.45;;;25.50;99.90;;;;;;5101825;28;20039;-52
2022/07/24 04:05:15;;;;;;;18.38;10.02;;;25.40;99.90;;;;;;5105708;28;20391;-54
2022/07/24 04:07:40;;;;;;;15.60;10.30;;;25.50;99.90;;;;;;5105903;28;20065;-55
2022/07/24 04:22:32;;;;;;;13.98;11.85;;;25.40;99.90;;;;;;5153925;27;20436;-52
2022/07/24 04:24:58;;;;;;;15.15;11.55;;;25.60;99.90;;;;;;5146087;27;20027;-52
2022/07/24 04:27:23;;;;;;;17.20;11.57;;;25.70;99.90;;;;;;5106841;27;20392;-51
2022/07/24 04:29:49;;;;;;;20.55;11.68;;;25.70;99.90;;;;;;5109339;27;20035;-51
2022/07/24 04:32:15;;;;;;;17.67;12.05;;;25.70;99.90;;;;;;5111408;27;20393;-51
2022/07/24 04:34:40;;;;;;;23.80;11.43;;;25.70;99.90;;;;;;5146062;27;20098;-52
2022/07/24 04:37:06;;;;;;;19.95;11.82;;;25.70;99.90;;;;;;5146805;27;20462;-52
2022/07/24 04:39:32;;;;;;;19.85;13.05;;;25.70;99.90;;;;;;5149584;27;20030;-51
2022/07/24 04:41:58;;;;;;;16.73;12.55;;;25.70;99.90;;;;;;5147949;27;20038;-52
2022/07/24 04:44:24;;;;;;;15.57;11.48;;;25.80;99.90;;;;;;5148595;27;20519;-53
2022/07/24 04:46:49;;;;;;;18.05;12.48;;;25.80;99.90;;;;;;5148847;27;20050;-52
2022/07/24 04:49:15;;;;;;;16.02;12.13;;;25.90;99.90;;;;;;5145573;27;20508;-50
2022/07/24 04:51:41;;;;;;;16.05;12.32;;;25.90;99.90;;;;;;5146464;27;20030;-53
2022/07/24 04:54:06;;;;;;;18.25;12.10;;;26.00;99.90;;;;;;5148249;27;20034;-52
2022/07/24 04:56:32;;;;;;;18.45;12.48;;;26.10;99.90;;;;;;5096169;27;20031;-52
2022/07/24 04:59:01;;;;;;;21.70;12.68;;;26.10;99.90;;;;;;5147584;27;20030;-50
2022/07/24 05:01:28;;;;;;;18.52;12.93;;;26.10;99.90;;;;;;5148598;27;20538;-52
2022/07/24 05:03:56;;;;;;;16.67;12.30;;;26.10;99.90;;;;;;5144939;27;20022;-51
2022/07/24 05:06:22;;;;;;;15.80;10.10;;;26.10;99.90;;;;;;5148555;27;20041;-51
2022/07/24 05:08:48;;;;;;;15.40;11.38;;;26.30;99.90;;;;;;5147011;27;20580;-53
2022/07/24 05:11:14;;;;;;;15.13;9.45;;;26.30;99.90;;;;;;5111211;27;20053;-48
2022/07/24 05:13:40;;;;;;;13.93;10.80;;;;;;;;;;5058180;27;20028;-49
2022/07/24 05:16:06;;;;;;;17.92;11.65;;;;;;;;;;5144867;27;20121;-50
2022/07/24 05:18:32;;;;;;;15.05;9.98;;;26.50;99.90;;;;;;5095056;27;20049;-51
2022/07/24 05:20:58;;;;;;;18.25;10.50;;;26.50;99.90;;;;;;5139179;27;20059;-50
2022/07/24 05:23:23;;;;;;;13.85;8.70;;;26.60;99.90;;;;;;5114015;28;20390;-51
2022/07/24 05:25:49;;;;;;;14.45;8.80;;;26.70;99.90;;;;;;5060751;28;20040;-50
2022/07/24 05:28:15;;;;;;;13.80;9.60;;;26.70;99.90;;;;;;5061830;28;20066;-50
2022/07/24 05:30:41;;;;;;;14.35;9.73;;;;;;;;;;5113391;28;20071;-50
2022/07/24 05:33:07;;;;;;;14.32;9.68;;;26.90;99.90;;;;;;5113537;28;20024;-51
2022/07/24 05:35:33;;;;;;;13.85;8.73;;;26.90;99.90;;;;;;5113243;28;20406;-51
2022/07/24 05:37:58;;;;;;;14.23;9.20;;;27.10;99.90;;;;;;5060825;28;20063;-50
2022/07/24 05:40:24;;;;;;;12.23;9.20;;;27.00;99.90;;;;;;5111995;28;20024;-50
2022/07/24 05:42:50;;;;;;;12.27;9.23;;;27.10;99.90;;;;;;5113193;28;20039;-50
2022/07/24 05:45:16;;;;;;;9.35;8.05;;;27.10;99.90;;;;;;5113182;28;20054;-50
2022/07/24 05:47:42;;;;;;;13.27;9.85;;;27.10;99.90;;;;;;5112806;28;20023;-50
2022/07/24 05:50:10;;;;;;;10.10;8.50;;;27.20;99.90;;;;;;5112405;28;20497;-50
2022/07/24 05:52:37;;;;;;;10.82;9.30;;;;;;;;;;5112051;28;20072;-50
2022/07/24 05:55:03;;;;;;;11.80;8.93;;;27.10;99.90;;;;;;5112247;28;20533;-51
2022/07/24 05:57:30;;;;;;;10.43;8.32;;;;;;;;;;5076428;28;20031;-50
2022/07/24 05:59:56;;;;;;;13.13;8.82;;;;;;;;;;5111503;28;20028;-51
2022/07/24 06:02:21;;;;;;;12.05;8.00;;;27.30;99.90;;;;;;5112728;28;20124;-50
2022/07/24 06:04:47;;;;;;;10.07;8.07;;;27.40;99.90;;;;;;5113301;28;20066;-51
2022/07/24 06:07:13;;;;;;;12.60;7.97;;;27.50;99.90;;;;;;5059613;28;20044;-50
2022/07/24 06:09:39;;;;;;;16.33;8.30;;;27.50;99.90;;;;;;5112508;28;20028;-50
2022/07/24 06:12:05;;;;;;;12.38;7.85;;;27.40;99.90;;;;;;5111982;28;20122;-51
2022/07/24 06:14:32;;;;;;;11.75;7.93;;;27.40;99.90;;;;;;5043774;28;20044;-51
2022/07/24 06:16:57;;;;;;;10.43;7.78;;;27.50;99.90;;;;;;5111552;28;20032;-51
2022/07/24 06:19:23;;;;;;;13.65;7.68;;;27.70;99.90;;;;;;5072787;28;20038;-51
2022/07/24 06:21:49;;;;;;;8.57;6.93;;;27.70;99.90;;;;;;5113047;27;20054;-51
2022/07/24 06:24:15;;;;;;;10.05;7.10;;;27.90;99.90;;;;;;5113768;27;20039;-51
2022/07/24 06:26:41;;;;;;;9.32;7.38;;;28.00;99.90;;;;;;5113872;27;20026;-50
2022/07/24 06:29:07;;;;;;;10.20;7.10;;;28.00;99.90;;;;;;5112998;27;20031;-51
2022/07/24 06:31:33;;;;;;;13.73;7.45;;;28.10;99.90;;;;;;5113211;27;20051;-51
2022/07/24 06:33:58;;;;;;;11.45;7.28;;;28.10;99.90;;;;;;5109734;27;20030;-51
2022/07/24 06:36:24;;;;;;;15.95;6.93;;;28.20;99.90;;;;;;5111529;27;20498;-51
2022/07/24 06:38:50;;;;;;;15.40;7.97;;;28.30;99.90;;;;;;5074243;28;20050;-51
2022/07/24 06:41:16;;;;;;;12.32;7.72;;;28.20;99.90;;;;;;5113162;27;20420;-51
2022/07/24 06:43:42;;;;;;;7.90;6.63;;;28.20;99.90;;;;;;5052307;28;20410;-51
2022/07/24 06:46:07;;;;;;;10.35;7.65;;;28.40;99.90;;;;;;5076472;28;20073;-51
2022/07/24 06:48:33;;;;;;;13.02;7.55;;;;;;;;;;5113315;28;20084;-51
2022/07/24 06:50:59;;;;;;;8.15;6.72;;;28.60;99.90;;;;;;5111916;27;20474;-52
2022/07/24 06:53:25;;;;;;;8.43;6.60;;;;;;;;;;5060157;28;20043;-51
2022/07/24 06:55:55;;;;;;;8.93;7.47;;;28.90;99.90;;;;;;5112725;27;20027;-51
2022/07/24 06:58:21;;;;;;;10.05;7.63;;;29.00;99.50;;;;;;5113249;27;20386;-51
2022/07/24 07:00:48;;;;;;;8.23;5.70;;;29.10;99.50;;;;;;5112594;27;20106;-51
2022/07/24 07:03:14;;;;;;;9.60;7.18;;;29.00;99.20;;;;;;5111904;27;20079;-52
2022/07/24 07:05:40;;;;;;;9.75;6.75;;;29.10;99.30;;;;;;5112634;27;20032;-51
2022/07/24 07:08:06;;;;;;;15.80;7.60;;;29.10;99.10;;;;;;5042266;27;20041;-51
2022/07/24 07:10:31;;;;;;;13.65;7.55;;;29.00;99.20;;;;;;5113112;28;20051;-51
2022/07/24 07:12:57;;;;;;;13.77;8.73;;;29.10;99.30;;;;;;5091616;28;20038;-52
2022/07/24 07:15:23;;;;;;;13.15;7.13;;;29.10;99.10;;;;;;5092282;28;20035;-52
2022/07/24 07:17:49;;;;;;;13.25;7.25;;;29.20;99.10;;;;;;5112428;27;20042;-51
2022/07/24 07:20:15;;;;;;;11.63;7.65;;;29.10;98.90;;;;;;5059016;28;20062;-51
2022/07/24 07:22:41;;;;;;;11.32;7.88;;;29.20;99.30;;;;;;5093802;28;20066;-51
2022/07/24 07:25:09;;;;;;;12.10;7.20;;;29.40;99.00;;;;;;5110959;28;20027;-51
2022/07/24 07:27:35;;;;;;;11.70;7.95;;;29.60;99.20;;;;;;5111384;28;20032;-50
2022/07/24 07:30:02;;;;;;;9.25;7.72;;;29.90;99.10;;;;;;5111476;28;20652;-51
2022/07/24 07:32:28;;;;;;;8.85;7.75;;;29.70;98.40;;;;;;5111881;28;20035;-51
2022/07/24 07:34:54;;;;;;;11.18;8.20;;;29.70;99.10;;;;;;5074933;28;20031;-51
2022/07/24 07:37:20;;;;;;;12.50;7.93;;;29.60;99.20;;;;;;5110057;28;20034;-51
2022/07/24 07:39:46;;;;;;;17.25;9.30;;;;;;;;;;5112425;28;20019;-52
2022/07/24 07:42:12;;;;;;;9.60;8.48;;;;;;;;;;5058501;28;20046;-51
2022/07/24 07:44:39;;;;;;;10.40;7.82;;;;;;;;;;5110743;28;20028;-51
2022/07/24 07:47:04;;;;;;;9.35;7.93;;;30.00;97.60;;;;;;5056983;28;20059;-51
2022/07/24 07:49:30;;;;;;;14.35;8.13;;;30.00;97.80;;;;;;5111420;28;20470;-51
2022/07/24 07:51:56;;;;;;;10.30;7.57;;;30.20;97.50;;;;;;5111179;28;20078;-51
2022/07/24 07:54:22;;;;;;;11.93;8.38;;;30.20;97.40;;;;;;5074579;28;20043;-51
2022/07/24 07:56:48;;;;;;;9.80;7.60;;;30.20;97.60;;;;;;5110822;28;20462;-51
2022/07/24 07:59:13;;;;;;;10.90;8.05;;;30.30;97.00;;;;;;5024414;28;20496;-51
2022/07/24 08:01:39;;;;;;;10.80;8.13;;;30.40;96.90;;;;;;5111000;28;20390;-51
2022/07/24 08:04:05;;;;;;;10.02;7.47;;;;;;;;;;5058211;28;20044;-51
2022/07/24 08:06:31;;;;;;;13.55;7.93;;;30.60;96.50;;;;;;5057983;28;20035;-51
2022/07/24 08:08:57;;;;;;;9.00;7.07;;;30.80;96.60;;;;;;5071157;28;20055;-51
2022/07/24 08:11:22;;;;;;;12.35;7.93;;;30.70;96.30;;;;;;5110941;28;20118;-51
2022/07/24 08:13:48;;;;;;;8.55;7.45;;;30.60;96.20;;;;;;5111304;28;20020;-51
2022/07/24 08:16:14;;;;;;;53.47;11.23;;;30.60;96.40;;;;;;5057939;28;20039;-51
2022/07/24 08:18:40;;;;;;;15.55;8.82;;;30.50;96.70;;;;;;5085342;28;20032;-52
2022/07/24 08:21:05;;;;;;;15.35;7.90;;;30.70;96.60;;;;;;5111274;28;20064;-51
2022/07/24 08:23:31;;;;;;;12.30;7.47;;;30.50;96.60;;;;;;5110632;28;20019;-51
2022/07/24 08:25:57;;;;;;;9.27;6.68;;;30.60;96.50;;;;;;5074535;28;20562;-51
2022/07/24 08:28:23;;;;;;;12.73;7.28;;;30.60;96.50;;;;;;5047739;28;20669;-51
2022/07/24 08:30:50;;;;;;;11.10;6.93;;;30.60;97.00;;;;;;5012928;28;20045;-51
2022/07/24 08:33:16;;;;;;;10.20;6.28;;;30.50;96.40;;;;;;5048088;28;20041;-51
2022/07/24 08:35:41;;;;;;;9.27;6.40;;;30.20;96.30;;;;;;5048150;28;20031;-51
2022/07/24 08:38:07;;;;;;;7.53;6.10;;;30.30;96.70;;;;;;5047177;28;20455;-51
2022/07/24 08:40:36;;;;;;;8.60;5.63;;;30.30;96.30;;;;;;5030705;28;20099;-52
2022/07/24 08:43:03;;;;;;;9.95;7.07;;;;;;;;;;5047313;28;20526;-52
2022/07/24 08:45:31;;;;;;;8.38;6.30;;;30.30;96.60;;;;;;5046737;28;20684;-52
2022/07/24 08:47:57;;;;;;;7.00;5.78;;;30.40;97.00;;;;;;5013186;28;20128;-54
2022/07/24 08:50:23;;;;;;;9.68;6.80;;;30.60;96.30;;;;;;4992275;28;20204;-54
2022/07/24 08:52:49;;;;;;;7.47;6.63;;;30.70;96.20;;;;;;5044146;28;20036;-51
2022/07/24 08:55:16;;;;;;;8.32;6.05;;;;;;;;;;5010944;28;20570;-51
2022/07/24 08:57:43;;;;;;;9.18;6.47;;;;;;;;;;5047739;28;20040;-51
2022/07/24 09:00:09;;;;;;;8.75;5.45;;;;;;;;;;5098256;28;20054;-53
2022/07/24 09:02:37;;;;;;;10.25;6.30;;;31.10;99.90;;;;;;5113072;28;20027;-54
2022/07/24 09:05:03;;;;;;;9.77;6.72;;;;;;;;;;5109606;28;20634;-53
2022/07/24 09:07:30;;;;;;;6.57;5.68;;;;;;;;;;5110174;28;20059;-50
2022/07/24 09:10:08;;;;;;;9.55;6.55;;;31.40;95.50;;;;;;5110996;28;20027;-55
2022/07/24 09:12:37;;;;;;;8.90;5.90;;;31.30;95.60;;;;;;5062734;28;20395;-55
2022/07/24 09:15:13;;;;;;;8.63;5.88;;;31.30;95.30;;;;;;5064238;28;20669;-54
2022/07/24 09:17:51;;;;;;;9.60;6.10;;;31.30;95.30;;;;;;5064590;28;20053;-53
2022/07/24 09:20:17;;;;;;;9.48;6.05;;;31.60;96.60;;;;;;5064884;28;20040;-55
2022/07/24 09:22:43;;;;;;;8.10;5.93;;;;;;;;;;5069065;28;20040;-55
2022/07/24 09:25:17;;;;;;;7.60;6.50;;;;;;;;;;5068837;28;20082;-53
2022/07/24 09:27:49;;;;;;;6.85;6.15;;;32.10;95.10;;;;;;5068589;28;20047;-53
2022/07/24 09:30:33;;;;;;;6.38;5.45;;;32.20;95.20;;;;;;5068787;28;20098;-53
2022/07/24 09:33:00;;;;;;;6.93;6.20;;;32.10;94.50;;;;;;5068230;28;20043;-53
2022/07/24 09:35:48;;;;;;;6.70;5.50;;;32.00;94.30;;;;;;5069318;28;20107;-54
2022/07/24 09:38:18;;;;;;;6.85;5.68;;;31.90;94.50;;;;;;4981599;28;20409;-55
2022/07/24 09:40:51;;;;;;;7.50;6.05;;;;;;;;;;5010590;28;20033;-53
2022/07/24 09:43:28;;;;;;;6.57;5.38;;;32.50;94.60;;;;;;5001102;28;20041;-55
2022/07/24 09:46:06;;;;;;;8.32;6.15;;;32.60;97.20;;;;;;5035031;28;20025;-55
2022/07/24 09:48:41;;;;;;;8.20;6.20;;;32.50;94.60;;;;;;5036392;28;20049;-53
2022/07/24 09:51:13;;;;;;;6.55;5.82;;;32.60;93.90;;;;;;5038167;28;20051;-54
2022/07/24 09:53:39;;;;;;;6.45;5.45;;;32.60;93.60;;;;;;5039089;28;20122;-53
2022/07/24 09:56:06;;;;;;;7.63;5.18;;;;;;;;;;5031418;28;20041;-53
2022/07/24 09:58:33;;;;;;;7.25;5.50;;;33.20;98.10;;;;;;5035404;28;20539;-54
2022/07/24 10:01:02;;;;;;;7.85;5.78;;;33.30;93.30;;;;;;5038264;28;20689;-54
2022/07/24 10:03:33;;;;;;;6.95;5.80;;;33.30;93.10;;;;;;5038162;28;20100;-54
2022/07/24 10:06:03;;;;;;;8.18;5.97;;;33.40;93.00;;;;;;5043276;28;20114;-55
2022/07/24 10:08:31;;;;;;;7.45;5.10;;;33.70;92.20;;;;;;5055429;28;20024;-52
2022/07/24 10:10:57;;;;;;;8.52;5.25;;;33.30;91.60;;;;;;5111355;28;20047;-53
2022/07/24 10:13:25;;;;;;;8.07;5.03;;;33.80;92.40;;;;;;5111653;28;20036;-55
2022/07/24 10:16:20;;;;;;;8.15;5.57;;;33.70;91.60;;;;;;5055477;28;20118;-52
2022/07/24 10:18:46;;;;;;;4.93;4.18;;;33.70;91.60;;;;;;5110985;28;20543;-54
2022/07/24 10:21:19;;;;;;;8.27;5.20;;;33.60;91.10;;;;;;5111884;27;20414;-54
2022/07/24 10:24:18;;;;;;;5.93;4.75;;;33.60;91.40;;;;;;5111822;27;20059;-54
2022/07/24 10:26:50;;;;;;;6.25;4.78;;;34.10;91.60;;;;;;5108019;27;20032;-54
2022/07/24 10:29:22;;;;;;;7.35;5.13;;;34.30;91.00;;;;;;5112645;27;20042;-55
2022/07/24 10:31:55;;;;;;;7.82;5.50;;;34.10;90.70;;;;;;5111825;27;20046;-52
2022/07/24 10:34:24;;;;;;;8.30;4.97;;;34.10;91.00;;;;;;5112446;27;20438;-54
2022/07/24 10:37:01;;;;;;;4.95;4.45;;;34.20;91.00;;;;;;5111757;27;20027;-53
2022/07/24 10:39:31;;;;;;;5.97;5.38;;;;;;;;;;5075385;28;20032;-54
2022/07/24 10:42:05;;;;;;;6.10;5.03;;;;;;;;;;5111827;27;20085;-54
2022/07/24 10:44:31;;;;;;;5.57;4.55;;;;;;;;;;5112140;27;20034;-54
2022/07/24 10:47:03;;;;;;;8.18;4.50;;;;;;;;;;5112168;27;20081;-55
2022/07/24 10:49:35;;;;;;;5.78;4.68;;;;;;;;;;5072173;28;20112;-55
2022/07/24 10:52:02;;;;;;;4.97;4.53;;;;;;;;;;5112508;27;20036;-55
2022/07/24 10:54:28;;;;;;;7.03;4.35;;;;;;;;;;5111818;27;20032;-53
2022/07/24 10:56:54;;;;;;;5.68;4.80;;;;;;;;;;5111684;27;20020;-53
2022/07/24 10:59:33;;;;;;;6.50;3.38;;;;;;;;;;5110602;27;20049;-55
2022/07/24 11:02:19;;;;;;;4.80;4.30;;;;;;;;;;5095187;28;20522;-52
2022/07/24 11:04:45;;;;;;;5.57;4.95;;;;;;;;;;5103998;27;20037;-49
2022/07/24 11:07:12;;;;;;;7.20;4.72;;;34.10;89.20;;;;;;5111683;27;20080;-50
2022/07/24 11:10:01;;;;;;;7.85;4.40;;;34.50;89.00;;;;;;5112404;28;20526;-52
2022/07/24 11:12:32;;;;;;;5.85;4.47;;;34.20;89.10;;;;;;5108478;27;20035;-52
2022/07/24 11:17:50;;;;;;;5.43;3.80;;;34.40;89.00;;;;;;5110816;28;20054;-50
2022/07/24 11:20:18;;;;;;;6.38;3.75;;;34.00;88.60;;;;;;5110746;27;20035;-52
2022/07/24 11:22:50;;;;;;;4.65;4.13;;;33.90;89.30;;;;;;5110429;27;20631;-52
2022/07/24 11:25:28;;;;;;;6.57;4.40;;;33.70;89.00;;;;;;5110858;27;20111;-52
2022/07/24 11:28:11;;;;;;;7.20;4.18;;;33.90;89.00;;;;;;5109945;27;20024;-53
2022/07/24 11:30:43;;;;;;;6.20;4.43;;;34.00;88.20;;;;;;5110839;27;20028;-53
2022/07/24 11:33:11;;;;;;;10.15;4.35;;;34.00;88.80;;;;;;5109908;27;20031;-53
2022/07/24 11:35:38;;;;;;;4.43;4.03;;;33.70;88.10;;;;;;5109596;27;20110;-53
2022/07/24 11:38:06;;;;;;;5.55;3.92;;;33.80;87.60;;;;;;5111788;27;20032;-51
2022/07/24 11:40:33;;;;;;;5.03;4.00;;;33.60;88.10;;;;;;5091997;28;20036;-53
2022/07/24 11:43:01;;;;;;;5.28;3.88;;;33.90;88.20;;;;;;5111512;28;20050;-54
2022/07/24 11:45:27;;;;;;;4.30;3.90;;;34.20;87.50;;;;;;5076222;28;20043;-53
2022/07/24 11:47:56;;;;;;;4.55;4.07;;;34.00;87.50;;;;;;5026349;28;20062;-54
2022/07/24 11:50:23;;;;;;;4.38;3.47;;;;;;;;;;5112014;27;20042;-55
2022/07/24 11:52:49;;;;;;;6.78;4.13;;;34.90;96.30;;;;;;5056257;28;20359;-58
2022/07/24 11:55:18;;;;;;;3.75;3.40;;;34.70;87.10;;;;;;5113284;27;20031;-57
2022/07/24 11:57:46;;;;;;;3.92;3.53;;;34.70;86.40;;;;;;5074381;28;20123;-50
2022/07/24 12:00:15;;;;;;;4.45;4.03;;;34.80;87.50;;;;;;5112581;28;20034;-51
2022/07/24 12:02:51;;;;;;;4.15;3.75;;;34.70;86.70;;;;;;5009999;28;20104;-49
2022/07/24 12:05:30;;;;;;;5.28;3.70;;;34.80;85.90;;;;;;5112306;28;20030;-58
2022/07/24 12:07:58;;;;;;;5.10;3.83;;;34.90;85.70;;;;;;5108780;28;20478;-50
2022/07/24 12:10:25;;;;;;;4.75;3.50;;;35.30;85.40;;;;;;5111858;28;20100;-55
2022/07/24 12:12:53;;;;;;;5.22;3.75;;;35.00;85.60;;;;;;5110419;28;20031;-51
2022/07/24 12:15:20;;;;;;;4.15;3.30;;;34.70;85.90;;;;;;5072294;28;20038;-52
2022/07/24 12:18:03;;;;;;;5.30;3.60;;;34.30;85.40;;;;;;5111896;28;20099;-51
2022/07/24 12:20:32;;;;;;;3.60;3.30;;;34.10;85.80;;;;;;5102433;28;20046;-56
2022/07/24 12:23:00;;;;;;;5.22;3.10;;;33.90;85.40;;;;;;5075500;28;20114;-53
2022/07/24 12:25:46;;;;;;;6.03;3.22;;;33.90;86.00;;;;;;5066386;28;20106;-52
2022/07/24 12:28:14;;;;;;;6.05;2.90;;;33.60;85.60;;;;;;5063582;28;20438;-60
2022/07/24 12:30:41;;;;;;;5.82;3.05;;;33.60;85.20;;;;;;5065072;28;20051;-56
2022/07/24 12:33:11;;;;;;;4.03;2.45;;;33.60;84.20;;;;;;5070001;28;20094;-54
2022/07/24 12:36:08;;;;;;;3.80;2.65;;;33.80;84.30;;;;;;5071333;28;20040;-56
2022/07/24 12:39:12;;;;;;;3.75;2.95;;;33.70;83.30;;;;;;5058181;28;20895;-54
2022/07/24 12:41:48;;;;;;;8.38;4.30;;;33.80;83.90;;;;;;5074539;28;20041;-54
2022/07/24 12:44:14;;;;;;;7.05;5.43;;;33.70;82.70;;;;;;5041914;28;20033;-53
2022/07/24 12:46:42;;;;;;;5.15;3.45;;;33.70;82.90;;;;;;5045944;28;20120;-50
2022/07/24 12:49:17;;;;;;;5.18;3.10;;;33.60;83.00;;;;;;5110427;28;20476;-51
2022/07/24 12:51:48;;;;;;;4.68;3.15;;;33.80;84.10;;;;;;5046332;28;20185;-53
2022/07/24 12:54:20;;;;;;;4.25;3.20;;;34.10;83.70;;;;;;5045993;28;20040;-53
2022/07/24 12:56:46;;;;;;;;;;;34.10;83.00;;;;;;5049667;28;20029;-51
2022/07/24 12:59:44;;;;;;;4.43;3.90;;;33.90;85.20;;;;;;5046887;28;19920;-56
2022/07/24 13:02:22;;;;;;;5.18;4.03;;;33.70;86.10;;;;;;5026864;28;20103;-49
2022/07/24 13:04:52;;;;;;;8.95;4.82;;;;;;;;;;5026392;28;20026;-53
2022/07/24 13:07:21;;;;;;;8.27;4.32;;;32.80;99.90;;;;;;5026429;28;20069;-54
2022/07/24 13:09:47;;;;;;;7.43;3.70;;;32.90;91.80;;;;;;5026766;28;20037;-54
2022/07/24 13:12:14;;;;;;;5.93;2.83;;;32.70;90.20;;;;;;5026543;28;20033;-51